Time;durP1;ratioP1;P1;durP2;ratioP2;P2;SDS_P1;SDS_P2;PMS_P1;PMS_P2;Temp;Humidity;BMP_temperature;BMP_pressure;BME280_temperature;BME280_humidity;BME280_pressure;Samples;Min_cycle;Max_cycle;Signal;HPM_P1;HPM_P2
2020/12/28 00:01:47;;;;;;;15.05;7.70;;;;;;;3.27;82.83;101225.08;1790221;79;26087;-56
2020/12/28 00:04:16;;;;;;;15.90;7.95;;;;;;;3.25;83.05;101220.78;1782654;79;25774;-55
2020/12/28 00:06:49;;;;;;;13.98;7.67;;;;;;;3.24;83.01;101212.41;1783600;79;26975;-56
2020/12/28 00:09:16;;;;;;;14.35;8.15;;;;;;;3.18;83.18;101200.28;1792286;79;25503;-56
2020/12/28 00:11:44;;;;;;;18.17;8.08;;;;;;;3.15;83.59;101205.75;1770391;79;28041;-56
2020/12/28 00:14:12;;;;;;;15.05;7.22;;;;;;;3.11;83.62;101202.87;1749248;81;27079;-57
2020/12/28 00:16:41;;;;;;;10.20;6.20;;;;;;;3.12;83.75;101200.61;1793079;78;25487;-57
2020/12/28 00:19:08;;;;;;;12.70;7.17;;;;;;;3.14;83.84;101194.72;1780788;79;25722;-56
2020/12/28 00:21:36;;;;;;;15.93;7.50;;;;;;;3.15;83.87;101170.34;1774259;79;25613;-56
2020/12/28 00:24:04;;;;;;;18.87;7.25;;;;;;;3.15;83.61;101183.15;1801811;79;28408;-56
2020/12/28 00:26:40;;;;;;;12.65;6.95;;;;;;;3.18;83.27;101203.43;1801481;79;26161;-56
2020/12/28 00:29:09;;;;;;;14.25;6.90;;;;;;;3.21;83.39;101187.30;1797632;79;25592;-57
2020/12/28 00:31:37;;;;;;;13.75;7.22;;;;;;;3.26;83.31;101183.47;1800035;79;26491;-57
2020/12/28 00:34:05;;;;;;;13.78;6.97;;;;;;;3.28;83.39;101175.41;1777881;78;25530;-56
2020/12/28 00:36:33;;;;;;;13.55;6.25;;;;;;;3.29;83.60;101170.48;1784049;79;27611;-57
2020/12/28 00:39:01;;;;;;;13.85;6.60;;;;;;;3.28;83.78;101163.44;1779119;79;25910;-56
2020/12/28 00:41:28;;;;;;;10.68;5.35;;;;;;;3.26;83.57;101160.87;1784271;79;26190;-57
2020/12/28 00:43:57;;;;;;;11.85;6.22;;;;;;;3.26;83.81;101154.70;1770489;79;25518;-57
2020/12/28 00:46:25;;;;;;;8.68;6.40;;;;;;;3.26;83.77;101150.23;1770546;79;25672;-57
2020/12/28 00:48:53;;;;;;;12.65;5.95;;;;;;;3.28;83.85;101144.82;1781172;79;28662;-56
2020/12/28 00:51:22;;;;;;;12.45;6.45;;;;;;;3.31;84.16;101143.34;1770185;79;25703;-57
2020/12/28 00:53:50;;;;;;;12.60;5.83;;;;;;;3.33;83.97;101140.59;1770003;81;25622;-57
2020/12/28 00:56:19;;;;;;;12.82;7.53;;;;;;;3.35;84.27;101145.37;1793886;79;26219;-56
2020/12/28 00:58:47;;;;;;;16.35;6.20;;;;;;;3.36;84.06;101131.98;1810576;79;25436;-57
2020/12/28 01:01:14;;;;;;;12.68;5.50;;;;;;;3.39;84.29;101123.01;1781255;79;27532;-57
2020/12/28 01:03:42;;;;;;;11.57;5.55;;;;;;;3.40;84.31;101116.27;1779160;79;25612;-56
2020/12/28 01:06:33;;;;;;;8.98;5.80;;;;;;;3.48;84.23;101111.87;1833238;78;25557;-56
2020/12/28 01:09:19;;;;;;;8.95;5.35;;;;;;;3.42;84.49;101113.06;1805347;79;27024;-56
2020/12/28 01:11:48;;;;;;;12.23;4.85;;;;;;;3.47;84.57;101110.61;1805654;79;27601;-56
2020/12/28 01:14:17;;;;;;;10.25;5.08;;;;;;;3.49;84.58;101103.41;1785132;79;25717;-56
2020/12/28 01:16:46;;;;;;;10.78;4.62;;;;;;;3.52;84.52;101099.27;1800992;79;25828;-56
2020/12/28 01:19:14;;;;;;;10.75;5.65;;;;;;;3.53;84.42;101089.02;1791662;79;25878;-55
2020/12/28 01:21:43;;;;;;;10.35;4.67;;;;;;;3.56;84.40;101082.19;1774323;79;26574;-56
2020/12/28 01:24:11;;;;;;;9.25;4.92;;;;;;;3.59;84.58;101076.23;1774293;79;26574;-56
2020/12/28 01:26:42;;;;;;;10.08;5.12;;;;;;;3.61;84.44;101078.82;1773784;79;25729;-56
2020/12/28 01:29:11;;;;;;;13.28;4.20;;;;;;;3.65;84.48;101060.41;1782244;79;26259;-56
2020/12/28 01:31:42;;;;;;;9.13;4.28;;;;;;;3.68;84.76;101057.58;1805390;79;25697;-55
2020/12/28 01:34:10;;;;;;;10.38;4.60;;;;;;;3.69;84.83;101042.02;1805408;79;26071;-56
2020/12/28 01:36:51;;;;;;;7.60;4.40;;;;;;;3.76;84.63;101038.05;1838319;78;25528;-55
2020/12/28 01:39:21;;;;;;;8.35;3.45;;;;;;;3.72;85.13;101039.16;1772301;79;25703;-57
2020/12/28 01:41:51;;;;;;;5.28;3.35;;;;;;;3.74;85.10;101033.28;1784914;79;27703;-57
2020/12/28 01:44:20;;;;;;;8.55;3.72;;;;;;;3.81;85.47;101025.83;1771836;79;25657;-58
2020/12/28 01:46:50;;;;;;;7.35;3.22;;;;;;;3.83;85.25;101015.95;1782810;79;25721;-56
2020/12/28 01:49:19;;;;;;;8.48;3.72;;;;;;;3.86;85.26;101002.45;1786911;79;25758;-56
2020/12/28 01:51:47;;;;;;;6.85;4.20;;;;;;;3.88;85.12;101005.89;1781723;79;25681;-55
2020/12/28 01:54:20;;;;;;;6.08;3.65;;;;;;;3.90;84.94;100997.81;1781686;79;28267;-54
2020/12/28 01:56:52;;;;;;;7.17;3.67;;;;;;;3.94;85.00;100995.86;1786196;79;25635;-56
2020/12/28 01:59:24;;;;;;;4.97;2.95;;;;;;;4.00;85.07;100988.84;1796341;79;25776;-57
2020/12/28 02:01:55;;;;;;;4.75;2.37;;;;;;;4.05;85.61;100988.97;1780546;78;25744;-56
2020/12/28 02:04:23;;;;;;;11.80;3.45;;;;;;;4.12;85.22;100988.61;1736033;81;26114;-56
2020/12/28 02:07:04;;;;;;;4.58;2.77;;;;;;;4.20;85.17;100987.68;1819472;77;25524;-55
2020/12/28 02:09:33;;;;;;;6.72;3.20;;;;;;;4.22;85.05;100989.30;1781644;80;25577;-54
2020/12/28 02:12:02;;;;;;;11.40;3.98;;;;;;;4.27;85.12;100981.53;1781573;80;28724;-55
2020/12/28 02:14:31;;;;;;;6.03;4.12;;;;;;;4.33;84.78;100981.16;1781541;79;25656;-55
2020/12/28 02:17:27;;;;;;;9.60;3.55;;;;;;;4.47;85.24;100976.34;1801920;78;25555;-54
2020/12/28 02:19:57;;;;;;;6.85;3.33;;;;;;;4.39;84.82;100969.67;1771663;79;25682;-55
2020/12/28 02:22:25;;;;;;;6.95;2.85;;;;;;;4.40;84.80;100969.19;1774017;79;26671;-55
2020/12/28 02:24:54;;;;;;;6.90;3.27;;;;;;;4.42;84.76;100969.95;1774227;79;26061;-55
2020/12/28 02:27:22;;;;;;;7.70;3.47;;;;;;;4.49;85.33;100958.47;1776602;80;25651;-57
2020/12/28 02:29:49;;;;;;;7.80;4.03;;;;;;;4.48;84.73;100958.08;1777459;79;25603;-55
2020/12/28 02:32:18;;;;;;;9.98;4.12;;;;;;;4.52;84.96;100952.97;1773824;80;26483;-55
2020/12/28 02:35:06;;;;;;;5.08;3.52;;;;;;;4.53;84.39;100945.33;1815713;78;25497;-55
2020/12/28 02:37:35;;;;;;;7.45;3.80;;;;;;;4.43;84.60;100942.86;1804380;79;25696;-56
2020/12/28 02:40:04;;;;;;;7.20;4.20;;;;;;;4.46;85.20;100951.98;1792891;79;28539;-57
2020/12/28 02:42:34;;;;;;;6.17;3.30;;;;;;;4.44;84.92;100947.25;1778584;79;26090;-58
2020/12/28 02:45:21;;;;;;;11.15;3.95;;;;;;;4.48;85.20;100946.09;1776489;79;25667;-58
2020/12/28 02:48:07;;;;;;;7.72;3.30;;;;;;;4.49;85.21;100939.82;1787185;79;25655;-58
2020/12/28 02:50:53;;;;;;;6.65;3.80;;;;;;;4.52;85.23;100924.99;1805623;79;25659;-57
2020/12/28 02:53:40;;;;;;;6.62;3.80;;;;;;;4.52;85.30;100913.00;1805569;79;27519;-57
2020/12/28 02:56:27;;;;;;;8.03;3.50;;;;;;;4.52;85.24;100914.34;1784604;79;25725;-56
2020/12/28 02:59:13;;;;;;;5.70;3.58;;;;;;;4.51;85.16;100904.63;1774067;79;25655;-57
2020/12/28 03:02:00;;;;;;;7.92;3.58;;;;;;;4.52;85.30;100902.34;1773809;80;25681;-56
2020/12/28 03:04:46;;;;;;;9.65;4.03;;;;;;;4.55;85.54;100894.14;1795376;79;25974;-56
2020/12/28 03:07:39;;;;;;;8.33;4.05;;;;;;;4.62;85.48;100889.30;1833319;78;25591;-55
2020/12/28 03:10:25;;;;;;;5.05;3.40;;;;;;;4.61;85.29;100892.91;1775119;79;25779;-57
2020/12/28 03:13:13;;;;;;;5.58;3.17;;;;;;;4.67;85.31;100894.73;1774062;79;27286;-57
2020/12/28 03:15:59;;;;;;;3.92;2.80;;;;;;;4.70;85.03;100875.90;1796214;78;26549;-57
2020/12/28 03:18:46;;;;;;;5.75;3.35;;;;;;;4.72;84.88;100874.46;1751987;81;25662;-57
2020/12/28 03:21:32;;;;;;;5.92;2.98;;;;;;;4.76;84.84;100871.13;1733968;81;25776;-56
2020/12/28 03:24:18;;;;;;;4.67;3.17;;;;;;;4.79;84.94;100864.28;1711331;82;25788;-57
2020/12/28 03:27:04;;;;;;;5.05;2.70;;;;;;;4.83;85.06;100860.45;1708871;82;27971;-56
2020/12/28 03:29:50;;;;;;;5.05;2.62;;;;;;;4.84;85.36;100854.17;1711412;83;25705;-57
2020/12/28 03:32:36;;;;;;;3.27;2.25;;;;;;;4.87;85.01;100855.32;1716288;82;25687;-56
2020/12/28 03:35:25;;;;;;;4.90;2.30;;;;;;;4.92;85.48;100849.20;1717449;81;25593;-56
2020/12/28 03:38:13;;;;;;;3.98;2.62;;;;;;;4.94;85.50;100829.98;1757877;81;26064;-56
2020/12/28 03:40:55;;;;;;;5.08;2.30;;;;;;;4.99;85.70;100813.19;1822626;78;25529;-55
2020/12/28 03:43:41;;;;;;;3.37;2.25;;;;;;;4.98;85.73;100821.30;1775897;80;26026;-56
2020/12/28 03:46:28;;;;;;;3.95;2.30;;;;;;;4.98;85.90;100822.63;1774042;79;27517;-56
2020/12/28 03:49:14;;;;;;;3.60;2.58;;;;;;;4.99;85.89;100825.19;1774019;79;26680;-56
2020/12/28 03:52:00;;;;;;;3.00;1.80;;;;;;;5.00;86.03;100812.73;1774495;79;25652;-57
2020/12/28 03:54:47;;;;;;;4.08;2.27;;;;;;;5.03;85.73;100815.18;1774150;79;25731;-57
2020/12/28 03:57:33;;;;;;;4.65;3.52;;;;;;;5.07;85.83;100806.50;1773855;80;25706;-57
2020/12/28 04:00:29;;;;;;;4.22;2.67;;;;;;;5.11;85.83;100800.87;1805333;78;25502;-56
2020/12/28 04:03:16;;;;;;;4.58;2.67;;;;;;;5.08;86.04;100796.22;1781645;80;25667;-55
2020/12/28 04:06:02;;;;;;;6.12;3.25;;;;;;;5.08;86.14;100785.09;1778243;79;29011;-58
2020/12/28 04:08:43;;;;;;;6.67;3.62;;;;;;;5.10;86.23;100782.31;1837569;78;25617;-55
2020/12/28 04:11:25;;;;;;;8.03;3.60;;;;;;;5.01;86.51;100785.96;1737922;79;25518;-55
2020/12/28 04:14:03;;;;;;;6.83;4.08;;;;;;;4.98;86.58;100764.82;1803397;79;27794;-54
2020/12/28 04:16:31;;;;;;;7.22;4.10;;;;;;;4.96;86.41;100754.76;1781474;80;25709;-55
2020/12/28 04:18:59;;;;;;;7.70;3.65;;;;;;;4.98;86.40;100750.65;1781647;79;25702;-55
2020/12/28 04:21:27;;;;;;;6.60;3.75;;;;;;;4.99;86.41;100756.36;1786343;79;25489;-56
2020/12/28 04:23:55;;;;;;;10.05;4.35;;;;;;;4.97;86.59;100756.47;1813406;79;25436;-55
2020/12/28 04:26:23;;;;;;;5.08;3.37;;;;;;;5.00;86.51;100746.08;1820579;77;27500;-55
2020/12/28 04:28:51;;;;;;;6.47;3.92;;;;;;;5.00;86.48;100738.08;1746688;82;25443;-55
2020/12/28 04:31:19;;;;;;;5.62;3.25;;;;;;;5.00;86.52;100730.08;1746857;82;25607;-55
2020/12/28 04:33:47;;;;;;;6.97;3.15;;;;;;;5.00;86.54;100714.92;1747425;80;25618;-56
2020/12/28 04:36:15;;;;;;;8.20;3.27;;;;;;;5.00;86.74;100721.59;1746873;82;26026;-55
2020/12/28 04:38:43;;;;;;;6.87;3.30;;;;;;;5.01;86.95;100717.12;1746740;82;27516;-55
2020/12/28 04:41:13;;;;;;;3.70;2.52;;;;;;;5.00;86.81;100721.59;1752348;80;26084;-56
2020/12/28 04:43:42;;;;;;;4.90;3.05;;;;;;;5.00;87.00;100726.08;1768807;80;25676;-55
2020/12/28 04:46:10;;;;;;;5.10;2.77;;;;;;;4.99;86.96;100719.03;1767488;81;25707;-55
2020/12/28 04:48:38;;;;;;;6.85;3.02;;;;;;;5.00;87.01;100716.26;1767471;81;25649;-55
2020/12/28 04:51:06;;;;;;;4.70;2.80;;;;;;;5.04;87.24;100726.23;1706603;84;27541;-55
2020/12/28 04:53:35;;;;;;;4.05;2.35;;;;;;;5.03;87.43;100713.02;1735823;82;25770;-55
2020/12/28 04:56:03;;;;;;;3.40;2.40;;;;;;;5.06;87.35;100717.66;1730965;82;25727;-55
2020/12/28 04:58:31;;;;;;;3.95;2.45;;;;;;;5.09;87.27;100717.94;1730932;82;25735;-55
2020/12/28 05:01:01;;;;;;;2.47;2.20;;;;;;;5.10;87.25;100724.98;1730974;82;26128;-55
2020/12/28 05:03:30;;;;;;;3.52;2.58;;;;;;;5.14;87.44;100727.83;1731030;82;27537;-55
2020/12/28 05:06:00;;;;;;;4.35;2.90;;;;;;;5.16;87.20;100736.56;1730682;82;26228;-55
2020/12/28 05:08:28;;;;;;;4.55;2.08;;;;;;;5.19;87.40;100740.86;1729008;81;25746;-55
2020/12/28 05:11:08;;;;;;;7.70;3.05;;;;;;;5.22;87.33;100750.84;1728913;83;25723;-56
2020/12/28 05:13:36;;;;;;;2.22;1.98;;;;;;;5.24;87.40;100748.94;1728888;83;26179;-55
2020/12/28 05:16:04;;;;;;;5.15;2.98;;;;;;;5.28;87.63;100745.59;1728941;83;27543;-58
2020/12/28 05:18:34;;;;;;;4.37;2.52;;;;;;;5.32;87.66;100729.73;1728458;83;25921;-55
2020/12/28 05:21:02;;;;;;;3.42;2.40;;;;;;;5.32;87.41;100725.27;1738332;81;25640;-55
2020/12/28 05:23:32;;;;;;;5.20;2.75;;;;;;;5.37;87.51;100722.75;1756492;81;26319;-55
2020/12/28 05:26:04;;;;;;;4.50;2.80;;;;;;;5.42;87.40;100733.98;1756141;81;26159;-55
2020/12/28 05:28:37;;;;;;;6.83;4.30;;;;;;;5.45;87.75;100731.09;1810883;79;28522;-58
2020/12/28 05:31:06;;;;;;;5.10;2.55;;;;;;;5.48;87.51;100729.06;1810901;79;26082;-58
2020/12/28 05:33:36;;;;;;;2.33;2.08;;;;;;;5.50;87.49;100735.66;1810990;78;25634;-55
2020/12/28 05:36:04;;;;;;;4.95;2.72;;;;;;;5.52;87.38;100741.72;1811026;79;26628;-57
2020/12/28 05:38:34;;;;;;;3.80;2.62;;;;;;;5.57;87.38;100727.60;1810952;78;25693;-56
2020/12/28 05:41:05;;;;;;;5.00;2.10;;;;;;;5.59;87.42;100731.48;1796537;79;27527;-57
2020/12/28 05:43:34;;;;;;;3.77;2.12;;;;;;;5.59;87.50;100716.34;1810868;79;25602;-58
2020/12/28 05:46:02;;;;;;;3.80;2.33;;;;;;;5.60;87.34;100727.86;1811016;79;25614;-57
2020/12/28 05:48:34;;;;;;;4.25;2.22;;;;;;;5.66;87.38;100727.92;1810910;79;26131;-58
2020/12/28 05:51:02;;;;;;;4.45;2.50;;;;;;;5.68;87.36;100726.86;1810988;79;26315;-57
2020/12/28 05:53:34;;;;;;;4.83;2.70;;;;;;;5.70;87.25;100723.61;1810823;78;27961;-56
2020/12/28 05:56:02;;;;;;;3.42;2.70;;;;;;;5.70;87.26;100715.59;1810629;78;26153;-57
2020/12/28 05:58:31;;;;;;;3.27;2.45;;;;;;;5.71;87.38;100715.11;1810854;79;25582;-56
2020/12/28 06:01:03;;;;;;;4.30;2.22;;;;;;;5.71;87.34;100716.44;1810860;79;25425;-56
2020/12/28 06:03:34;;;;;;;3.70;2.37;;;;;;;5.74;87.37;100713.57;1810953;79;26156;-57
2020/12/28 06:06:01;;;;;;;5.65;3.15;;;;;;;5.76;87.32;100711.66;1810918;79;26765;-57
2020/12/28 06:08:29;;;;;;;6.53;3.90;;;;;;;5.82;87.36;100721.89;1800100;79;26130;-56
2020/12/28 06:11:05;;;;;;;6.08;3.25;;;;;;;5.85;87.19;100710.14;1798591;79;25773;-56
2020/12/28 06:13:33;;;;;;;3.92;2.85;;;;;;;5.84;87.48;100709.30;1786448;79;25447;-56
2020/12/28 06:16:03;;;;;;;7.92;2.98;;;;;;;5.83;87.46;100712.93;1780241;79;25644;-56
2020/12/28 06:18:31;;;;;;;4.40;3.20;;;;;;;5.86;87.52;100703.38;1766003;81;27585;-56
2020/12/28 06:21:12;;;;;;;4.80;2.55;;;;;;;5.86;87.31;100695.38;1761028;81;25684;-56
2020/12/28 06:23:51;;;;;;;7.10;2.60;;;;;;;5.88;87.13;100692.59;1735688;82;25715;-56
2020/12/28 06:26:20;;;;;;;8.38;3.30;;;;;;;5.91;87.57;100688.37;1735285;82;25698;-57
2020/12/28 06:28:48;;;;;;;3.80;2.60;;;;;;;5.92;87.95;100693.59;1753590;79;26334;-56
2020/12/28 06:31:16;;;;;;;4.17;2.30;;;;;;;5.98;87.90;100691.44;1735658;81;27528;-56
2020/12/28 06:33:50;;;;;;;3.65;2.55;;;;;;;6.02;87.95;100691.64;1735883;81;25720;-56
2020/12/28 06:36:18;;;;;;;3.05;1.95;;;;;;;6.07;87.85;100687.69;1763127;81;25669;-56
2020/12/28 06:38:59;;;;;;;3.85;2.40;;;;;;;6.10;87.84;100682.11;1758892;79;25742;-57
2020/12/28 06:41:30;;;;;;;2.72;2.12;;;;;;;6.17;87.74;100684.36;1744849;79;26576;-57
2020/12/28 06:44:01;;;;;;;2.52;1.55;;;;;;;6.22;87.63;100675.52;1755834;79;27536;-57
2020/12/28 06:46:31;;;;;;;4.17;2.67;;;;;;;6.29;87.54;100679.45;1727407;82;25685;-57
2020/12/28 06:48:59;;;;;;;2.33;1.90;;;;;;;6.34;87.74;100679.12;1729835;81;25512;-57
2020/12/28 06:51:27;;;;;;;2.05;1.62;;;;;;;6.41;87.50;100672.36;1735961;79;25615;-57
2020/12/28 06:53:56;;;;;;;3.83;2.30;;;;;;;6.51;87.32;100680.58;1727526;82;26253;-57
2020/12/28 06:56:26;;;;;;;4.30;2.02;;;;;;;6.57;87.32;100676.11;1735596;80;28443;-56
2020/12/28 06:58:59;;;;;;;4.58;2.72;;;;;;;6.64;87.17;100669.84;1754178;80;25436;-57
2020/12/28 07:01:28;;;;;;;4.58;2.02;;;;;;;6.69;87.09;100668.54;1765741;81;25756;-56
2020/12/28 07:03:56;;;;;;;3.77;2.45;;;;;;;6.75;87.11;100664.56;1765992;81;25616;-57
2020/12/28 07:06:24;;;;;;;3.20;1.90;;;;;;;6.80;87.08;100667.73;1758505;81;26097;-57
2020/12/28 07:09:07;;;;;;;4.80;1.95;;;;;;;6.84;86.95;100660.33;1753323;80;27468;-57
2020/12/28 07:11:35;;;;;;;4.05;2.20;;;;;;;6.87;86.85;100654.27;1747630;80;25694;-57
2020/12/28 07:14:08;;;;;;;3.70;1.85;;;;;;;6.93;86.85;100654.79;1767657;81;25664;-57
2020/12/28 07:16:35;;;;;;;2.35;1.72;;;;;;;6.98;86.80;100652.14;1767636;80;26175;-57
2020/12/28 07:19:04;;;;;;;2.98;1.80;;;;;;;7.04;86.81;100650.33;1755976;80;25665;-56
2020/12/28 07:21:33;;;;;;;2.77;1.85;;;;;;;7.12;86.82;100647.55;1794592;78;28464;-57
2020/12/28 07:24:01;;;;;;;3.75;2.37;;;;;;;7.16;86.74;100649.88;1810762;78;25743;-57
2020/12/28 07:26:29;;;;;;;3.22;2.37;;;;;;;7.23;86.68;100645.38;1748419;80;25507;-57
2020/12/28 07:28:57;;;;;;;3.95;2.90;;;;;;;7.26;86.72;100633.12;1780654;80;25964;-56
2020/12/28 07:31:25;;;;;;;5.15;3.37;;;;;;;7.28;86.60;100632.02;1780732;80;26614;-57
2020/12/28 07:33:54;;;;;;;16.02;6.10;;;;;;;7.31;86.69;100637.62;1780822;80;28503;-57
2020/12/28 07:36:25;;;;;;;4.42;2.60;;;;;;;7.33;86.55;100632.54;1781664;79;25725;-57
2020/12/28 07:38:53;;;;;;;4.97;2.72;;;;;;;7.36;86.42;100633.62;1739582;81;26397;-57
2020/12/28 07:41:24;;;;;;;9.20;4.03;;;;;;;7.38;86.40;100625.96;1769614;80;25469;-57
2020/12/28 07:43:57;;;;;;;3.30;2.52;;;;;;;7.40;86.39;100633.39;1813328;78;25710;-57
2020/12/28 07:46:52;;;;;;;3.35;2.50;;;;;;;7.40;86.34;100636.06;1813389;79;27510;-57
2020/12/28 07:49:28;;;;;;;3.65;2.92;;;;;;;7.40;86.53;100635.56;1813211;78;25708;-57
2020/12/28 07:52:17;;;;;;;6.58;3.42;;;;;;;7.41;86.68;100639.95;1813450;79;25709;-57
2020/12/28 07:54:50;;;;;;;7.25;4.28;;;;;;;7.43;86.59;100634.00;1813354;79;25652;-57
2020/12/28 07:57:26;;;;;;;12.43;5.85;;;;;;;7.46;86.63;100640.47;1780913;80;25718;-57
2020/12/28 08:00:07;;;;;;;8.30;5.33;;;;;;;7.48;86.53;100629.16;1779350;80;27604;-56
2020/12/28 08:03:03;;;;;;;7.78;4.33;;;;;;;7.51;86.67;100631.58;1780425;80;25659;-55
2020/12/28 08:05:34;;;;;;;8.05;5.10;;;;;;;7.54;86.70;100628.30;1766678;80;25518;-57
2020/12/28 08:08:02;;;;;;;8.13;5.03;;;;;;;7.58;86.64;100629.75;1779077;80;25626;-57
2020/12/28 08:10:30;;;;;;;9.45;4.78;;;;;;;7.61;86.68;100623.70;1769981;81;25814;-56
2020/12/28 08:13:01;;;;;;;11.40;6.05;;;;;;;7.63;86.74;100608.84;1770070;81;27944;-55
2020/12/28 08:15:32;;;;;;;10.25;5.90;;;;;;;7.65;86.81;100605.06;1770015;81;26097;-57
2020/12/28 08:18:10;;;;;;;15.35;7.95;;;;;;;7.65;86.67;100609.58;1769712;80;25743;-57
2020/12/28 08:20:40;;;;;;;12.45;6.53;;;;;;;7.66;87.00;100598.73;1769961;80;25727;-57
2020/12/28 08:23:08;;;;;;;14.10;6.75;;;;;;;7.69;86.95;100605.67;1769807;81;25759;-57
2020/12/28 08:25:37;;;;;;;18.82;7.78;;;;;;;7.76;87.06;100610.89;1795486;79;27508;-56
2020/12/28 08:28:05;;;;;;;15.10;8.05;;;;;;;7.81;87.10;100600.69;1795801;79;25734;-56
2020/12/28 08:30:33;;;;;;;18.00;8.70;;;;;;;7.87;86.97;100614.55;1777595;78;25501;-57
2020/12/28 08:33:01;;;;;;;15.80;8.03;;;;;;;7.90;87.14;100607.63;1783834;79;25613;-57
2020/12/28 08:35:32;;;;;;;13.70;7.47;;;;;;;7.93;87.18;100606.05;1790525;79;26171;-57
2020/12/28 08:38:00;;;;;;;15.68;8.33;;;;;;;7.95;87.17;100608.09;1740283;81;27534;-57
2020/12/28 08:40:28;;;;;;;18.12;7.72;;;;;;;7.99;87.03;100598.84;1735218;81;25654;-57
2020/12/28 08:42:57;;;;;;;14.40;8.93;;;;;;;8.00;86.93;100601.89;1749128;81;25676;-56
2020/12/28 08:45:28;;;;;;;17.37;9.45;;;;;;;8.02;87.00;100589.23;1750793;81;25616;-57
2020/12/28 08:47:59;;;;;;;16.82;8.83;;;;;;;8.04;86.88;100583.23;1750793;81;26075;-57
2020/12/28 08:50:35;;;;;;;15.18;8.20;;;;;;;8.09;86.82;100582.86;1750959;81;27574;-57
2020/12/28 08:53:03;;;;;;;15.60;8.58;;;;;;;8.12;86.95;100579.45;1750766;81;25736;-57
2020/12/28 08:55:32;;;;;;;14.45;8.80;;;;;;;8.14;86.87;100582.86;1751015;81;25726;-57
2020/12/28 08:57:59;;;;;;;13.58;8.10;;;;;;;8.19;86.79;100585.16;1751067;81;25987;-57
2020/12/28 09:00:28;;;;;;;16.50;9.15;;;;;;;8.22;86.81;100582.24;1751051;81;25674;-56
2020/12/28 09:02:59;;;;;;;15.75;8.25;;;;;;;8.21;86.67;100590.39;1750946;81;27515;-56
2020/12/28 09:05:31;;;;;;;13.78;8.58;;;;;;;8.22;86.67;100581.38;1750898;81;25747;-57
2020/12/28 09:07:59;;;;;;;13.08;8.25;;;;;;;8.21;86.69;100584.56;1750999;81;25676;-57
2020/12/28 09:10:28;;;;;;;16.15;8.23;;;;;;;8.24;86.92;100578.95;1750955;81;26104;-57
2020/12/28 09:12:56;;;;;;;13.62;9.05;;;;;;;8.27;86.91;100574.66;1751039;81;25717;-56
2020/12/28 09:15:24;;;;;;;15.88;8.85;;;;;;;8.28;86.72;100581.73;1751045;81;28907;-57
2020/12/28 09:17:52;;;;;;;15.10;8.65;;;;;;;8.30;86.80;100565.04;1750948;81;26073;-57
2020/12/28 09:20:20;;;;;;;13.05;8.58;;;;;;;8.36;86.72;100563.69;1750918;81;25659;-56
2020/12/28 09:22:48;;;;;;;15.63;9.20;;;;;;;8.40;86.57;100557.08;1751177;81;25994;-57
2020/12/28 09:25:17;;;;;;;16.23;8.43;;;;;;;8.38;86.77;100550.98;1766011;81;25435;-57
2020/12/28 09:27:45;;;;;;;14.45;9.08;;;;;;;8.39;86.75;100557.22;1765975;81;27339;-57
2020/12/28 09:30:13;;;;;;;15.90;8.60;;;;;;;8.39;86.66;100543.31;1765999;81;25746;-57
2020/12/28 09:32:42;;;;;;;32.98;18.42;;;;;;;8.52;86.65;100538.31;1717093;81;25807;-57
2020/12/28 09:35:09;;;;;;;21.07;11.28;;;;;;;8.52;86.39;100534.28;1739450;79;25691;-56
2020/12/28 09:37:38;;;;;;;13.10;8.20;;;;;;;8.50;86.40;100535.77;1751058;81;25654;-56
2020/12/28 09:40:06;;;;;;;18.90;9.65;;;;;;;8.53;86.40;100525.27;1747741;81;27530;-57
2020/12/28 09:42:35;;;;;;;13.60;9.00;;;;;;;8.52;86.34;100528.42;1748674;79;25517;-56
2020/12/28 09:45:35;;;;;;;22.27;9.75;;;;;;;8.53;86.34;100526.11;1734771;82;25674;-57
2020/12/28 09:47:35;;;;;;;15.18;9.83;;;;;;;8.55;86.27;100525.49;1732319;82;25698;-57
2020/12/28 09:50:03;;;;;;;18.45;10.95;;;;;;;8.59;86.24;100517.56;1735405;82;25740;-57
2020/12/28 09:52:31;;;;;;;18.27;9.88;;;;;;;8.61;86.13;100521.45;1735256;82;27532;-57
2020/12/28 09:54:59;;;;;;;18.50;11.57;;;;;;;8.66;86.07;100514.35;1734886;81;25972;-56
2020/12/28 09:57:27;;;;;;;19.92;10.03;;;;;;;8.69;85.97;100513.59;1732389;81;25775;-56
2020/12/28 09:59:55;;;;;;;20.02;11.10;;;;;;;8.73;86.00;100507.02;1750946;81;26504;-56
2020/12/28 10:02:24;;;;;;;27.15;12.03;;;;;;;8.73;85.97;100502.12;1750959;81;25629;-56
2020/12/28 10:04:52;;;;;;;21.52;10.20;;;;;;;8.74;85.91;100504.66;1750841;81;28482;-56
2020/12/28 10:07:19;;;;;;;16.93;9.50;;;;;;;8.75;85.87;100488.09;1750803;81;25716;-56
2020/12/28 10:09:47;;;;;;;21.02;10.40;;;;;;;8.76;86.11;100497.84;1750940;81;25669;-56
2020/12/28 10:12:15;;;;;;;14.70;9.13;;;;;;;8.76;86.08;100493.31;1750681;81;25721;-56
2020/12/28 10:14:43;;;;;;;10.72;6.83;;;;;;;8.83;85.88;100487.45;1750860;81;26149;-56
2020/12/28 10:17:11;;;;;;;12.70;7.92;;;;;;;8.87;85.62;100486.19;1750915;81;27530;-56
2020/12/28 10:19:39;;;;;;;15.55;7.42;;;;;;;8.95;85.39;100485.53;1750796;81;25726;-56
2020/12/28 10:22:07;;;;;;;13.10;6.95;;;;;;;9.00;85.08;100476.58;1750992;81;25694;-56
2020/12/28 10:24:35;;;;;;;11.40;7.17;;;;;;;9.04;84.98;100465.45;1750900;81;26483;-56
2020/12/28 10:27:03;;;;;;;20.92;10.93;;;;;;;9.11;84.74;100466.24;1750968;81;26051;-56
2020/12/28 10:29:31;;;;;;;14.63;7.78;;;;;;;9.12;84.75;100454.05;1750786;81;27556;-56
2020/12/28 10:31:59;;;;;;;15.98;8.58;;;;;;;9.17;84.64;100461.70;1750785;81;25704;-56
2020/12/28 10:34:27;;;;;;;14.07;8.30;;;;;;;9.18;84.67;100468.77;1750768;79;26011;-55
2020/12/28 10:36:55;;;;;;;11.30;6.90;;;;;;;9.19;84.60;100455.69;1735568;82;25630;-56
2020/12/28 10:39:23;;;;;;;13.53;8.50;;;;;;;9.20;84.43;100458.25;1755761;80;25773;-56
2020/12/28 10:41:51;;;;;;;15.32;8.00;;;;;;;9.21;84.38;100448.36;1749551;80;27582;-56
2020/12/28 10:44:19;;;;;;;25.65;15.18;;;;;;;9.23;84.46;100457.13;1765823;81;25683;-56
2020/12/28 10:46:49;;;;;;;17.92;9.20;;;;;;;9.23;84.50;100449.08;1735526;82;25727;-56
2020/12/28 10:49:17;;;;;;;17.23;9.18;;;;;;;9.24;84.56;100447.59;1765981;81;25743;-57
2020/12/28 10:51:45;;;;;;;21.95;10.05;;;;;;;9.25;84.59;100447.11;1765934;81;26555;-56
2020/12/28 10:54:13;;;;;;;21.05;9.53;;;;;;;9.26;84.67;100447.47;1735462;82;27610;-57
2020/12/28 10:56:42;;;;;;;15.05;9.10;;;;;;;9.24;84.84;100446.25;1765801;81;26056;-57
2020/12/28 10:59:11;;;;;;;19.52;9.33;;;;;;;9.26;84.69;100446.61;1766030;81;25743;-57
2020/12/28 11:01:39;;;;;;;14.18;8.65;;;;;;;9.26;84.74;100438.08;1766002;81;26614;-57
2020/12/28 11:04:07;;;;;;;13.88;8.70;;;;;;;9.27;84.72;100441.13;1765960;81;26566;-57
2020/12/28 11:06:41;;;;;;;13.20;7.72;;;;;;;9.30;84.78;100438.15;1765614;81;27533;-56
2020/12/28 11:09:09;;;;;;;10.63;7.00;;;;;;;9.30;84.73;100445.36;1768582;80;25466;-56
2020/12/28 11:11:37;;;;;;;16.42;7.62;;;;;;;9.29;84.80;100443.66;1785496;80;25682;-56
2020/12/28 11:14:08;;;;;;;14.87;7.58;;;;;;;9.29;84.82;100442.32;1785405;80;25667;-56
2020/12/28 11:16:36;;;;;;;13.30;7.85;;;;;;;9.31;84.84;100449.75;1785375;80;25664;-55
2020/12/28 11:19:04;;;;;;;14.75;7.65;;;;;;;9.29;84.83;100442.32;1785482;80;26774;-56
2020/12/28 11:21:32;;;;;;;11.75;7.47;;;;;;;9.30;84.92;100438.15;1785417;80;26102;-56
2020/12/28 11:24:03;;;;;;;15.90;7.50;;;;;;;9.31;85.02;100426.43;1785509;80;25679;-56
2020/12/28 11:26:34;;;;;;;12.98;7.62;;;;;;;9.33;85.14;100435.20;1785330;80;26579;-56
2020/12/28 11:29:05;;;;;;;16.52;7.40;;;;;;;9.35;85.03;100429.69;1760575;80;25526;-56
2020/12/28 11:31:34;;;;;;;12.80;6.97;;;;;;;9.37;84.97;100418.33;1754377;81;27603;-56
2020/12/28 11:34:02;;;;;;;16.02;7.30;;;;;;;9.36;85.09;100415.28;1782858;80;26154;-56
2020/12/28 11:36:30;;;;;;;11.12;6.37;;;;;;;9.37;85.11;100418.33;1785253;80;25588;-56
2020/12/28 11:38:58;;;;;;;12.98;7.72;;;;;;;9.38;85.13;100413.31;1754294;81;26734;-56
2020/12/28 11:41:27;;;;;;;10.23;5.70;;;;;;;9.40;85.28;100421.58;1760381;80;25655;-56
2020/12/28 11:43:55;;;;;;;13.70;6.78;;;;;;;9.42;85.33;100420.59;1763738;81;27981;-56
2020/12/28 11:46:23;;;;;;;15.38;8.40;;;;;;;9.43;85.33;100422.30;1764708;80;25722;-56
2020/12/28 11:48:51;;;;;;;15.23;8.28;;;;;;;9.44;85.25;100427.52;1754238;81;25627;-56
2020/12/28 11:51:19;;;;;;;19.82;10.88;;;;;;;9.43;85.23;100424.48;1785609;80;25538;-56